createdAt,value
2019-05-22T00:00:00.498Z,51.10
2019-05-22T00:02:35.682Z,51.20
2019-05-22T00:05:14.474Z,51.10
2019-05-22T00:07:45.540Z,51.20
2019-05-22T00:10:19.965Z,51.20
2019-05-22T00:12:49.982Z,51.20
2019-05-22T00:15:24.351Z,51.10
2019-05-22T00:17:58.255Z,51.10
2019-05-22T00:20:29.781Z,51.20
2019-05-22T00:23:00.024Z,51.80
2019-05-22T00:25:33.234Z,51.10
2019-05-22T00:28:03.201Z,51.10
2019-05-22T00:30:35.984Z,51.10
2019-05-22T00:33:08.277Z,51.20
2019-05-22T00:35:38.717Z,51.10
2019-05-22T00:38:10.168Z,51.20
2019-05-22T00:40:45.329Z,51.20
2019-05-22T00:43:18.607Z,51.20
2019-05-22T00:45:50.304Z,51.20
2019-05-22T00:48:23.537Z,51.20
2019-05-22T00:51:15.269Z,51.20
2019-05-22T00:54:00.522Z,51.20
2019-05-22T00:56:55.367Z,51.20
2019-05-22T00:59:28.973Z,51.30
2019-05-22T01:02:02.638Z,51.30
2019-05-22T01:04:38.516Z,51.20
2019-05-22T01:07:17.558Z,51.20
2019-05-22T01:09:48.888Z,51.20
2019-05-22T01:12:21.932Z,51.20
2019-05-22T01:14:53.353Z,51.30
2019-05-22T01:17:24.099Z,51.20
2019-05-22T01:19:54.919Z,51.20
2019-05-22T01:22:26.350Z,51.20
2019-05-22T01:24:58.208Z,51.20
2019-05-22T01:27:29.521Z,51.30
2019-05-22T01:29:59.730Z,51.20
2019-05-22T01:32:43.419Z,51.20
2019-05-22T01:35:14.199Z,51.20
2019-05-22T01:37:45.126Z,51.20
2019-05-22T01:40:26.695Z,51.20
2019-05-22T01:42:59.164Z,51.20
2019-05-22T01:45:30.056Z,51.80
2019-05-22T01:48:02.517Z,52.20
2019-05-22T01:50:43.973Z,51.20
2019-05-22T01:53:15.899Z,51.20
2019-05-22T01:55:47.823Z,51.20
2019-05-22T01:58:20.154Z,51.30
2019-05-22T02:00:52.553Z,51.20
2019-05-22T02:03:25.190Z,51.20
2019-05-22T02:05:55.079Z,51.20
2019-05-22T02:08:24.990Z,51.20
2019-05-22T02:10:57.963Z,51.20
2019-05-22T02:13:33.236Z,51.30
2019-05-22T02:16:03.893Z,51.20
2019-05-22T02:18:34.719Z,51.20
2019-05-22T02:21:04.523Z,51.20
2019-05-22T02:23:34.207Z,51.20
2019-05-22T02:26:05.915Z,51.20
2019-05-22T02:28:36.989Z,51.30
2019-05-22T02:31:07.715Z,51.30
2019-05-22T02:33:56.428Z,51.10
2019-05-22T02:36:26.859Z,51.20
2019-05-22T02:38:57.734Z,51.30
2019-05-22T02:41:29.281Z,51.20
2019-05-22T02:44:00.034Z,51.10
2019-05-22T02:46:30.686Z,51.10
2019-05-22T02:49:01.978Z,51.10
2019-05-22T02:51:33.701Z,51.20
2019-05-22T02:54:04.240Z,51.10
2019-05-22T02:56:36.506Z,51.20
2019-05-22T02:59:07.086Z,51.20
2019-05-22T03:01:38.610Z,51.20
2019-05-22T03:04:10.230Z,51.10
2019-05-22T03:06:40.627Z,51.10
2019-05-22T03:09:31.899Z,51.20
2019-05-22T03:12:06.519Z,51.10
2019-05-22T03:14:38.080Z,51.20
2019-05-22T03:17:30.747Z,51.20
2019-05-22T03:20:06.564Z,51.20
2019-05-22T03:22:44.382Z,51.20
2019-05-22T03:25:15.749Z,51.30
2019-05-22T03:27:47.793Z,51.20
2019-05-22T03:30:26.716Z,51.20
2019-05-22T03:32:57.452Z,51.20
2019-05-22T03:35:29.811Z,51.20
2019-05-22T03:37:59.702Z,51.10
2019-05-22T03:40:30.248Z,51.10
2019-05-22T03:43:03.742Z,51.10
2019-05-22T03:45:35.281Z,51.10
2019-05-22T03:48:05.951Z,51.20
2019-05-22T03:50:36.250Z,51.20
2019-05-22T03:53:15.846Z,51.10
2019-05-22T03:55:45.627Z,51.20
2019-05-22T03:58:16.296Z,51.20
2019-05-22T04:00:46.928Z,51.20
2019-05-22T04:03:16.930Z,51.10
2019-05-22T04:05:47.434Z,51.20
2019-05-22T04:08:17.340Z,51.20
2019-05-22T04:11:03.479Z,51.20
2019-05-22T04:13:34.691Z,51.10
2019-05-22T04:16:07.084Z,51.20
2019-05-22T04:18:37.771Z,51.20
2019-05-22T04:21:08.339Z,51.20
2019-05-22T04:23:39.695Z,51.10
2019-05-22T04:26:12.389Z,51.10
2019-05-22T04:28:49.488Z,51.10
2019-05-22T04:31:20.319Z,51.10
2019-05-22T04:33:50.450Z,51.10
2019-05-22T04:36:21.439Z,51.00
2019-05-22T04:38:51.055Z,51.10
2019-05-22T04:41:22.413Z,51.10
2019-05-22T04:43:52.016Z,50.90
2019-05-22T04:46:23.461Z,51.00
2019-05-22T04:48:54.425Z,51.00
2019-05-22T04:51:29.985Z,51.00
2019-05-22T04:53:59.738Z,51.00
2019-05-22T04:56:30.659Z,51.00
2019-05-22T04:59:02.391Z,51.00
2019-05-22T05:01:32.569Z,51.60
2019-05-22T05:04:03.428Z,51.00
2019-05-22T05:06:36.486Z,51.00
2019-05-22T05:09:10.532Z,51.00
2019-05-22T05:11:40.845Z,51.00
2019-05-22T05:14:10.455Z,50.90
2019-05-22T05:16:40.065Z,50.90
2019-05-22T05:19:09.727Z,51.00
2019-05-22T05:21:39.456Z,51.00
2019-05-22T05:24:09.134Z,50.90
2019-05-22T05:26:40.604Z,51.00
2019-05-22T05:29:26.534Z,50.90
2019-05-22T05:31:57.248Z,50.90
2019-05-22T05:34:36.610Z,50.90
2019-05-22T05:37:08.054Z,51.00
2019-05-22T05:40:25.487Z,50.90
2019-05-22T05:42:55.098Z,50.90
2019-05-22T05:45:24.962Z,50.80
2019-05-22T05:47:55.393Z,50.90
2019-05-22T05:50:38.417Z,50.80
2019-05-22T05:52:58.090Z,50.80
2019-05-22T05:55:30.558Z,50.80
2019-05-22T05:58:28.518Z,50.80
2019-05-22T06:01:09.642Z,50.80
2019-05-22T06:03:41.320Z,50.80
2019-05-22T06:07:01.553Z,50.80
2019-05-22T06:09:32.260Z,50.70
2019-05-22T06:12:05.344Z,50.80
2019-05-22T06:14:34.121Z,50.70
2019-05-22T06:17:54.438Z,50.80
2019-05-22T06:20:25.536Z,50.80
2019-05-22T06:23:40.549Z,50.80
2019-05-22T06:26:11.381Z,50.70
2019-05-22T06:28:42.743Z,50.70
2019-05-22T06:31:22.028Z,50.70
2019-05-22T06:33:53.021Z,50.70
2019-05-22T06:36:23.459Z,50.70
2019-05-22T06:39:00.793Z,50.70
2019-05-22T06:41:35.437Z,51.30
2019-05-22T06:44:43.230Z,50.70
2019-05-22T06:47:20.755Z,50.70
2019-05-22T06:49:59.719Z,50.70
2019-05-22T06:52:29.361Z,50.60
2019-05-22T06:54:59.083Z,50.60
2019-05-22T06:57:34.410Z,50.70
2019-05-22T07:00:14.898Z,50.60
2019-05-22T07:02:44.339Z,50.60
2019-05-22T07:05:13.965Z,50.60
2019-05-22T07:07:44.535Z,50.50
2019-05-22T07:10:14.536Z,50.50
2019-05-22T07:12:44.411Z,50.50
2019-05-22T07:15:52.399Z,50.50
2019-05-22T07:18:24.019Z,50.50
2019-05-22T07:20:57.075Z,50.50
2019-05-22T07:23:30.479Z,50.50
2019-05-22T07:26:02.530Z,50.50
2019-05-22T07:28:35.762Z,50.60
2019-05-22T07:31:07.162Z,50.70
2019-05-22T07:33:37.070Z,50.70
2019-05-22T07:36:10.905Z,50.70
2019-05-22T07:38:39.272Z,50.60
2019-05-22T07:41:10.802Z,50.70
2019-05-22T07:43:41.891Z,50.80
2019-05-22T07:46:12.214Z,50.70
2019-05-22T07:48:42.082Z,50.70
2019-05-22T07:51:13.116Z,50.60
2019-05-22T07:53:43.014Z,50.60
2019-05-22T07:56:12.845Z,50.50
2019-05-22T07:58:42.963Z,50.50
2019-05-22T08:01:13.788Z,50.50
2019-05-22T08:03:44.458Z,50.40
2019-05-22T08:06:15.320Z,50.40
2019-05-22T08:08:49.384Z,50.40
2019-05-22T08:11:19.804Z,50.40
2019-05-22T08:13:51.521Z,50.40
2019-05-22T08:16:21.979Z,50.30
2019-05-22T08:18:53.142Z,50.30
2019-05-22T08:21:28.193Z,50.30
2019-05-22T08:23:58.089Z,50.40
2019-05-22T08:26:29.756Z,50.40
2019-05-22T08:29:01.669Z,50.40
2019-05-22T08:31:35.977Z,50.40
2019-05-22T08:34:06.924Z,50.40
2019-05-22T08:36:38.706Z,50.30
2019-05-22T08:39:16.369Z,50.80
2019-05-22T08:41:58.041Z,50.50
2019-05-22T08:44:29.006Z,50.40
2019-05-22T08:46:58.921Z,50.40
2019-05-22T08:49:28.735Z,50.30
2019-05-22T08:51:58.829Z,50.30
2019-05-22T08:54:30.579Z,50.30
2019-05-22T08:57:22.939Z,50.30
2019-05-22T08:59:53.257Z,50.40
2019-05-22T09:02:23.441Z,50.40
2019-05-22T09:04:53.567Z,50.40
2019-05-22T09:07:25.191Z,50.30
2019-05-22T09:09:55.243Z,50.30
2019-05-22T09:12:29.325Z,50.30
2019-05-22T09:14:59.285Z,50.30
2019-05-22T09:17:29.735Z,50.30
2019-05-22T09:19:59.368Z,50.30
2019-05-22T09:22:40.024Z,50.30
2019-05-22T09:25:03.195Z,50.40
2019-05-22T09:27:37.453Z,50.40
2019-05-22T09:30:08.811Z,50.70
2019-05-22T09:32:38.422Z,50.30
2019-05-22T09:35:08.376Z,50.20
2019-05-22T09:37:38.566Z,50.30
2019-05-22T09:40:09.313Z,50.20
2019-05-22T09:42:39.152Z,50.20
2019-05-22T09:45:09.138Z,50.20
2019-05-22T09:47:39.484Z,50.20
2019-05-22T09:50:10.157Z,50.30
2019-05-22T09:52:56.234Z,50.30
2019-05-22T09:55:12.995Z,50.30
2019-05-22T09:57:42.710Z,50.90
2019-05-22T10:00:14.191Z,50.20
2019-05-22T10:02:44.069Z,50.20
2019-05-22T10:05:16.447Z,50.10
2019-05-22T10:07:59.697Z,50.10
2019-05-22T10:10:18.551Z,50.20
2019-05-22T10:12:49.238Z,50.30
2019-05-22T10:15:19.019Z,50.30
2019-05-22T10:17:49.996Z,50.20
2019-05-22T10:20:19.911Z,50.20
2019-05-22T10:22:50.384Z,50.70
2019-05-22T10:25:20.161Z,50.20
2019-05-22T10:27:50.728Z,50.20
2019-05-22T10:30:22.357Z,50.20
2019-05-22T10:32:52.186Z,50.20
2019-05-22T10:35:23.334Z,50.20
2019-05-22T10:37:54.292Z,50.10
2019-05-22T10:40:24.764Z,50.10
2019-05-22T10:42:54.480Z,50.40
2019-05-22T10:45:24.375Z,50.10
2019-05-22T10:47:54.183Z,50.10
2019-05-22T10:50:24.408Z,50.10
2019-05-22T10:52:56.208Z,50.30
2019-05-22T10:55:27.547Z,50.20
2019-05-22T10:57:58.276Z,50.10
2019-05-22T11:00:29.293Z,49.90
2019-05-22T11:02:59.069Z,50.30
2019-05-22T11:05:29.535Z,50.30
2019-05-22T11:08:00.341Z,50.90
2019-05-22T11:10:30.855Z,50.30
2019-05-22T11:13:00.553Z,50.30
2019-05-22T11:15:31.269Z,50.30
2019-05-22T11:18:01.117Z,50.30
2019-05-22T11:20:33.897Z,50.20
2019-05-22T11:23:03.723Z,50.20
2019-05-22T11:25:33.591Z,50.20
2019-05-22T11:28:03.198Z,50.20
2019-05-22T11:30:33.673Z,50.20
2019-05-22T11:33:03.464Z,50.20
2019-05-22T11:35:33.998Z,50.20
2019-05-22T11:38:03.646Z,50.20
2019-05-22T11:40:34.074Z,50.20
2019-05-22T11:43:04.714Z,50.30
2019-05-22T11:45:34.396Z,50.20
2019-05-22T11:48:05.609Z,50.20
2019-05-22T11:50:36.124Z,50.30
2019-05-22T11:53:05.706Z,50.30
2019-05-22T11:55:45.048Z,50.20
2019-05-22T11:58:10.396Z,50.00
2019-05-22T12:00:40.023Z,50.10
2019-05-22T12:03:11.339Z,50.10
2019-05-22T12:05:41.812Z,50.20
2019-05-22T12:08:12.619Z,50.20
2019-05-22T12:10:42.361Z,50.10
2019-05-22T12:13:12.314Z,50.20
2019-05-22T12:15:42.362Z,50.20
2019-05-22T12:18:12.871Z,50.10
2019-05-22T12:20:42.847Z,50.10
2019-05-22T12:23:13.251Z,50.10
2019-05-22T12:25:42.876Z,50.10
2019-05-22T12:28:12.482Z,50.10
2019-05-22T12:30:42.341Z,50.10
2019-05-22T12:33:14.079Z,50.00
2019-05-22T12:35:43.912Z,50.20
2019-05-22T12:38:13.690Z,50.20
2019-05-22T12:40:43.394Z,50.10
2019-05-22T12:43:13.201Z,50.10
2019-05-22T12:45:42.840Z,50.10
2019-05-22T12:48:12.636Z,50.00
2019-05-22T12:50:42.467Z,50.00
2019-05-22T12:53:14.973Z,50.10
2019-05-22T12:55:44.784Z,50.00
2019-05-22T12:58:14.434Z,50.10
2019-05-22T13:00:44.434Z,50.00
2019-05-22T13:03:14.245Z,50.00
2019-05-22T13:05:44.874Z,50.70
2019-05-22T13:08:15.619Z,50.00
2019-05-22T13:10:46.967Z,50.10
2019-05-22T13:13:16.955Z,50.10
2019-05-22T13:15:47.733Z,50.10
2019-05-22T13:18:17.565Z,50.00
2019-05-22T13:20:47.906Z,50.00
2019-05-22T13:23:18.287Z,50.00
2019-05-22T13:25:48.027Z,50.00
2019-05-22T13:28:18.750Z,50.10
2019-05-22T13:30:52.044Z,50.10
2019-05-22T13:33:24.527Z,50.10
2019-05-22T13:35:55.106Z,50.00
2019-05-22T13:38:24.951Z,50.10
2019-05-22T13:40:56.903Z,50.10
2019-05-22T13:43:28.636Z,50.10
2019-05-22T13:45:58.404Z,50.10
2019-05-22T13:48:28.669Z,50.00
2019-05-22T13:50:59.258Z,50.00
2019-05-22T13:53:29.571Z,50.10
2019-05-22T13:55:59.285Z,50.10
2019-05-22T13:58:29.623Z,50.00
2019-05-22T14:01:00.128Z,50.00
2019-05-22T14:03:29.922Z,50.70
2019-05-22T14:06:00.437Z,50.00
2019-05-22T14:08:30.125Z,50.00
2019-05-22T14:11:00.755Z,50.00
2019-05-22T14:13:31.698Z,50.10
2019-05-22T14:16:01.375Z,50.00
2019-05-22T14:18:31.093Z,50.00
2019-05-22T14:21:00.945Z,50.00
2019-05-22T14:23:30.677Z,50.00
2019-05-22T14:26:01.212Z,50.00
2019-05-22T14:28:31.610Z,50.00
2019-05-22T14:31:01.336Z,50.00
2019-05-22T14:33:30.966Z,50.10
2019-05-22T14:36:00.624Z,50.10
2019-05-22T14:38:30.242Z,50.00
2019-05-22T14:40:59.933Z,50.00
2019-05-22T14:43:31.210Z,50.00
2019-05-22T14:46:00.869Z,50.00
2019-05-22T14:48:30.479Z,50.00
2019-05-22T14:51:00.104Z,50.00
2019-05-22T14:53:29.765Z,50.00
2019-05-22T14:56:00.235Z,50.00
2019-05-22T14:58:30.005Z,50.10
2019-05-22T15:00:59.663Z,50.10
2019-05-22T15:03:30.063Z,50.10
2019-05-22T15:05:59.750Z,50.10
2019-05-22T15:08:29.354Z,50.10
2019-05-22T15:10:58.964Z,50.00
2019-05-22T15:13:28.772Z,50.00
2019-05-22T15:15:58.417Z,50.10
2019-05-22T15:18:28.051Z,50.10
2019-05-22T15:21:02.254Z,50.00
2019-05-22T15:23:32.902Z,50.30
2019-05-22T15:26:02.518Z,50.00
2019-05-22T15:28:33.720Z,50.00
2019-05-22T15:31:03.529Z,50.00
2019-05-22T15:33:34.345Z,50.60
2019-05-22T15:36:06.705Z,49.90
2019-05-22T15:38:38.660Z,50.00
2019-05-22T15:41:09.488Z,50.00
2019-05-22T15:43:39.285Z,50.10
2019-05-22T15:46:09.056Z,50.00
2019-05-22T15:48:40.127Z,50.00
2019-05-22T15:51:09.925Z,50.00
2019-05-22T15:53:39.946Z,50.00
2019-05-22T15:56:09.611Z,50.00
2019-05-22T15:58:41.975Z,50.00
2019-05-22T16:01:13.421Z,50.00
2019-05-22T16:03:43.181Z,49.90
2019-05-22T16:06:12.863Z,50.10
2019-05-22T16:08:42.643Z,50.00
2019-05-22T16:11:14.667Z,50.00
2019-05-22T16:13:45.123Z,50.00
2019-05-22T16:16:17.056Z,50.00
2019-05-22T16:18:47.130Z,50.00
2019-05-22T16:21:16.851Z,50.00
2019-05-22T16:23:46.592Z,50.00
2019-05-22T16:26:16.519Z,50.00
2019-05-22T16:28:46.294Z,50.00
2019-05-22T16:31:16.830Z,50.00
2019-05-22T16:33:47.766Z,50.00
2019-05-22T16:36:18.646Z,50.00
2019-05-22T16:38:49.293Z,50.00
2019-05-22T16:41:19.472Z,50.00
2019-05-22T16:43:50.486Z,50.00
2019-05-22T16:46:21.622Z,50.00
2019-05-22T16:48:51.282Z,50.60
2019-05-22T16:51:22.254Z,50.00
2019-05-22T16:53:53.641Z,50.00
2019-05-22T16:56:23.278Z,50.00
2019-05-22T16:58:53.843Z,49.90
2019-05-22T17:01:26.444Z,49.90
2019-05-22T17:03:56.544Z,49.90
2019-05-22T17:06:27.143Z,49.90
2019-05-22T17:08:58.521Z,49.90
2019-05-22T17:11:28.416Z,50.00
2019-05-22T17:14:01.183Z,50.10
2019-05-22T17:16:32.651Z,50.00
2019-05-22T17:19:25.281Z,50.00
2019-05-22T17:21:39.935Z,50.10
2019-05-22T17:24:09.713Z,50.10
2019-05-22T17:26:39.596Z,50.20
2019-05-22T17:29:11.527Z,50.10
2019-05-22T17:31:41.354Z,50.20
2019-05-22T17:34:29.215Z,50.20
2019-05-22T17:37:01.289Z,50.20
2019-05-22T17:39:33.381Z,50.30
2019-05-22T17:42:03.945Z,50.40
2019-05-22T17:44:34.655Z,50.40
2019-05-22T17:47:06.677Z,50.40
2019-05-22T17:49:36.435Z,50.40
2019-05-22T17:52:07.976Z,50.40
2019-05-22T17:54:37.786Z,50.50
2019-05-22T17:57:09.058Z,50.50
2019-05-22T17:59:39.446Z,50.40
2019-05-22T18:02:11.616Z,50.50
2019-05-22T18:04:41.180Z,50.30
2019-05-22T18:07:11.209Z,50.20
2019-05-22T18:09:40.934Z,50.20
2019-05-22T18:12:11.456Z,49.90
2019-05-22T18:14:41.123Z,49.90
2019-05-22T18:17:10.906Z,49.90
2019-05-22T18:19:41.072Z,49.80
2019-05-22T18:22:12.423Z,49.90
2019-05-22T18:24:42.063Z,49.90
2019-05-22T18:27:11.763Z,50.00
2019-05-22T18:29:41.550Z,49.90
2019-05-22T18:32:11.394Z,49.80
2019-05-22T18:34:42.003Z,49.90
2019-05-22T18:37:11.630Z,49.90
2019-05-22T18:39:41.361Z,50.00
2019-05-22T18:42:11.858Z,50.10
2019-05-22T18:44:42.412Z,50.10
2019-05-22T18:47:14.484Z,50.10
2019-05-22T18:49:44.183Z,50.20
2019-05-22T18:52:13.915Z,50.00
2019-05-22T18:54:43.539Z,50.00
2019-05-22T18:57:13.149Z,50.00
2019-05-22T18:59:42.882Z,50.10
2019-05-22T19:02:13.890Z,50.10
2019-05-22T19:04:43.551Z,50.10
2019-05-22T19:07:13.179Z,50.10
2019-05-22T19:09:42.893Z,50.30
2019-05-22T19:12:12.498Z,50.30
2019-05-22T19:14:42.180Z,50.40
2019-05-22T19:17:11.858Z,50.30
2019-05-22T19:19:41.601Z,50.20
2019-05-22T19:22:11.442Z,50.50
2019-05-22T19:24:41.074Z,50.30
2019-05-22T19:27:12.324Z,50.30
2019-05-22T19:29:41.952Z,50.40
2019-05-22T19:32:11.746Z,50.30
2019-05-22T19:34:41.348Z,50.50
2019-05-22T19:37:10.967Z,50.30
2019-05-22T19:39:40.610Z,50.60
2019-05-22T19:42:10.397Z,50.40
2019-05-22T19:44:40.848Z,50.50
2019-05-22T19:47:11.556Z,50.50
2019-05-22T19:49:43.699Z,50.40
2019-05-22T19:52:12.540Z,50.40
2019-05-22T19:54:43.499Z,50.40
2019-05-22T19:57:13.206Z,50.40
2019-05-22T19:59:42.873Z,50.40
2019-05-22T20:02:12.850Z,50.60
2019-05-22T20:04:42.533Z,51.20
2019-05-22T20:07:14.219Z,50.50
2019-05-22T20:09:45.169Z,50.60
2019-05-22T20:12:15.784Z,50.50
2019-05-22T20:14:45.457Z,50.40
2019-05-22T20:17:15.340Z,50.50
2019-05-22T20:19:45.136Z,50.50
2019-05-22T20:22:14.811Z,50.60
2019-05-22T20:24:45.436Z,50.50
2019-05-22T20:27:15.983Z,50.60
2019-05-22T20:29:45.863Z,50.60
2019-05-22T20:32:18.475Z,50.50
2019-05-22T20:34:48.921Z,50.50
2019-05-22T20:37:18.683Z,50.60
2019-05-22T20:39:48.302Z,50.60
2019-05-22T20:42:17.921Z,50.50
2019-05-22T20:44:48.058Z,50.60
2019-05-22T20:47:19.200Z,50.40
2019-05-22T20:49:50.004Z,50.20
2019-05-22T20:52:22.351Z,50.00
2019-05-22T20:54:53.131Z,50.20
2019-05-22T20:57:22.733Z,50.50
2019-05-22T20:59:53.697Z,50.60
2019-05-22T21:02:25.082Z,50.90
2019-05-22T21:04:54.932Z,50.70
2019-05-22T21:07:33.141Z,50.70
2019-05-22T21:10:08.049Z,50.40
2019-05-22T21:12:39.524Z,50.30
2019-05-22T21:15:10.102Z,50.20
2019-05-22T21:17:41.347Z,50.20
2019-05-22T21:20:13.558Z,50.20
2019-05-22T21:22:43.987Z,50.20
2019-05-22T21:25:15.386Z,50.50
2019-05-22T21:27:46.157Z,50.30
2019-05-22T21:30:16.213Z,50.30
2019-05-22T21:32:45.864Z,50.20
2019-05-22T21:35:16.432Z,50.30
2019-05-22T21:37:46.060Z,50.40
2019-05-22T21:40:17.894Z,50.40
2019-05-22T21:42:47.534Z,50.30
2019-05-22T21:45:18.859Z,50.30
2019-05-22T21:47:49.232Z,50.30
2019-05-22T21:50:19.060Z,50.40
2019-05-22T21:52:48.652Z,50.40
2019-05-22T21:55:19.242Z,50.40
2019-05-22T21:57:48.994Z,50.40
2019-05-22T22:00:27.762Z,50.40
2019-05-22T22:02:58.220Z,50.50
2019-05-22T22:05:28.903Z,50.50
2019-05-22T22:07:58.834Z,50.50
2019-05-22T22:10:29.414Z,50.50
2019-05-22T22:13:07.647Z,50.60
2019-05-22T22:15:41.085Z,50.60
2019-05-22T22:18:12.549Z,50.60
2019-05-22T22:20:43.335Z,50.60
2019-05-22T22:23:13.322Z,51.30
2019-05-22T22:25:43.542Z,50.60
2019-05-22T22:28:16.078Z,50.00
2019-05-22T22:30:52.189Z,50.70
2019-05-22T22:33:25.202Z,50.60
2019-05-22T22:35:55.123Z,50.60
2019-05-22T22:38:26.947Z,50.70
2019-05-22T22:40:56.893Z,50.60
2019-05-22T22:43:28.044Z,50.70
2019-05-22T22:46:18.541Z,50.60
2019-05-22T22:48:50.071Z,50.60
2019-05-22T22:51:20.673Z,50.60
2019-05-22T22:53:51.389Z,50.70
2019-05-22T22:56:22.603Z,50.70
2019-05-22T22:58:53.086Z,50.70
2019-05-22T23:01:28.558Z,51.20
2019-05-22T23:04:00.986Z,50.70
2019-05-22T23:06:31.633Z,50.70
2019-05-22T23:09:02.458Z,50.70
2019-05-22T23:11:32.523Z,50.70
2019-05-22T23:14:02.331Z,50.70
2019-05-22T23:16:33.696Z,50.70
2019-05-22T23:19:43.068Z,50.70
2019-05-22T23:22:24.350Z,51.40
2019-05-22T23:24:56.342Z,50.90
2019-05-22T23:27:27.678Z,50.80
2019-05-22T23:29:59.744Z,50.80
2019-05-22T23:32:29.386Z,50.80
2019-05-22T23:34:59.398Z,50.80
2019-05-22T23:37:30.836Z,50.80
2019-05-22T23:40:02.129Z,50.80
2019-05-22T23:42:34.329Z,50.80
2019-05-22T23:45:04.567Z,50.90
2019-05-22T23:47:34.353Z,50.90
2019-05-22T23:50:05.300Z,50.90
2019-05-22T23:52:35.069Z,50.90
2019-05-22T23:55:06.914Z,50.90
2019-05-22T23:57:37.353Z,50.90
